createdAt,value
2023-05-04T00:01:04.020Z,100133.09
2023-05-04T00:02:08.117Z,100140.06
2023-05-04T00:03:13.124Z,100133.00
2023-05-04T00:04:18.460Z,100129.69
2023-05-04T00:05:23.533Z,100135.03
2023-05-04T00:06:27.570Z,100130.53
2023-05-04T00:07:31.625Z,100131.28
2023-05-04T00:08:35.602Z,100126.19
2023-05-04T00:09:40.662Z,100134.28
2023-05-04T00:10:45.205Z,100136.81
2023-05-04T00:11:50.425Z,100130.66
2023-05-04T00:12:54.929Z,100136.53
2023-05-04T00:14:02.009Z,100130.75
2023-05-04T00:15:06.967Z,100131.03
2023-05-04T00:16:11.300Z,100134.34
2023-05-04T00:17:15.750Z,100137.69
2023-05-04T00:18:19.643Z,100132.06
2023-05-04T00:19:24.038Z,100132.94
2023-05-04T00:20:27.999Z,100133.69
2023-05-04T00:21:32.242Z,100125.78
2023-05-04T00:22:36.701Z,100131.28
2023-05-04T00:23:40.813Z,100132.25
2023-05-04T00:24:44.675Z,100134.16
2023-05-04T00:25:49.171Z,100133.22
2023-05-04T00:26:53.750Z,100139.78
2023-05-04T00:27:58.477Z,100128.47
2023-05-04T00:29:02.336Z,100129.59
2023-05-04T00:30:07.589Z,100127.03
2023-05-04T00:31:12.914Z,100128.28
2023-05-04T00:32:17.096Z,100128.28
2023-05-04T00:33:21.826Z,100127.91
2023-05-04T00:34:26.433Z,100126.00
2023-05-04T00:35:32.480Z,100128.75
2023-05-04T00:36:36.656Z,100126.94
2023-05-04T00:37:40.886Z,100123.44
2023-05-04T00:38:52.217Z,100123.31
2023-05-04T00:39:56.423Z,100124.88
2023-05-04T00:41:01.132Z,100123.31
2023-05-04T00:42:05.453Z,100118.84
2023-05-04T00:43:09.440Z,100127.78
2023-05-04T00:44:14.451Z,100123.31
2023-05-04T00:45:18.977Z,100126.28
2023-05-04T00:46:23.957Z,100120.84
2023-05-04T00:47:29.960Z,100118.00
2023-05-04T00:48:35.508Z,100118.47
2023-05-04T00:49:40.186Z,100121.22
2023-05-04T00:50:44.764Z,100122.75
2023-05-04T00:51:50.534Z,100123.13
2023-05-04T00:53:00.379Z,100110.28
2023-05-04T00:54:05.410Z,100118.19
2023-05-04T00:55:11.926Z,100109.44
2023-05-04T00:56:17.102Z,100112.22
2023-05-04T00:57:21.897Z,100122.84
2023-05-04T00:58:27.204Z,100116.63
2023-05-04T00:59:31.244Z,100121.31
2023-05-04T01:00:36.629Z,100124.41
2023-05-04T01:01:42.609Z,100120.03
2023-05-04T01:02:46.673Z,100120.19
2023-05-04T01:03:52.832Z,100120.88
2023-05-04T01:04:57.030Z,100121.94
2023-05-04T01:06:37.995Z,100121.16
2023-05-04T01:08:04.742Z,100119.28
2023-05-04T01:09:21.826Z,100124.25
2023-05-04T01:10:41.032Z,100124.91
2023-05-04T01:12:19.523Z,100120.00
2023-05-04T01:13:25.662Z,100115.44
2023-05-04T01:14:31.811Z,100112.19
2023-05-04T01:15:36.887Z,100113.81
2023-05-04T01:16:41.047Z,100118.00
2023-05-04T01:17:44.843Z,100121.69
2023-05-04T01:18:48.971Z,100121.59
2023-05-04T01:19:54.586Z,100119.63
2023-05-04T01:20:58.404Z,100118.78
2023-05-04T01:22:02.389Z,100125.13
2023-05-04T01:23:06.314Z,100126.06
2023-05-04T01:24:11.155Z,100124.16
2023-05-04T01:25:15.378Z,100123.75
2023-05-04T01:26:32.538Z,100121.66
2023-05-04T01:28:05.602Z,100123.19
2023-05-04T01:29:24.253Z,100124.22
2023-05-04T01:30:39.870Z,100123.81
2023-05-04T01:31:46.854Z,100119.25
2023-05-04T01:32:52.459Z,100121.41
2023-05-04T01:33:57.317Z,100124.75
2023-05-04T01:35:03.105Z,100111.38
2023-05-04T01:36:08.653Z,100122.97
2023-05-04T01:37:13.153Z,100124.88
2023-05-04T01:38:19.111Z,100114.13
2023-05-04T01:39:23.599Z,100111.38
2023-05-04T01:40:27.614Z,100115.59
2023-05-04T01:41:31.744Z,100117.91
2023-05-04T01:42:35.928Z,100123.22
2023-05-04T01:43:41.506Z,100118.69
2023-05-04T01:44:46.074Z,100114.78
2023-05-04T01:45:50.704Z,100115.66
2023-05-04T01:46:55.636Z,100117.44
2023-05-04T01:48:00.668Z,100119.34
2023-05-04T01:49:05.344Z,100120.22
2023-05-04T01:50:10.600Z,100113.44
2023-05-04T01:51:16.139Z,100105.47
2023-05-04T01:52:20.720Z,100106.16
2023-05-04T01:53:25.477Z,100109.56
2023-05-04T01:54:29.408Z,100108.13
2023-05-04T01:55:33.653Z,100115.53
2023-05-04T01:56:39.158Z,100110.47
2023-05-04T01:57:43.718Z,100114.06
2023-05-04T01:58:47.766Z,100117.34
2023-05-04T01:59:52.760Z,100112.03
2023-05-04T02:01:00.104Z,100117.34
2023-05-04T02:02:04.374Z,100108.41
2023-05-04T02:03:09.665Z,100111.22
2023-05-04T02:04:15.606Z,100113.13
2023-05-04T02:05:19.822Z,100110.47
2023-05-04T02:06:24.831Z,100113.03
2023-05-04T02:07:29.444Z,100112.88
2023-05-04T02:08:33.582Z,100108.50
2023-05-04T02:09:38.581Z,100110.22
2023-05-04T02:10:43.495Z,100110.66
2023-05-04T02:11:47.903Z,100112.47
2023-05-04T02:12:52.555Z,100108.06
2023-05-04T02:13:56.788Z,100108.16
2023-05-04T02:15:00.740Z,100109.97
2023-05-04T02:16:07.421Z,100112.81
2023-05-04T02:17:12.024Z,100112.03
2023-05-04T02:18:16.468Z,100105.78
2023-05-04T02:19:20.534Z,100114.28
2023-05-04T02:20:25.074Z,100109.50
2023-05-04T02:21:31.291Z,100107.59
2023-05-04T02:22:35.505Z,100113.09
2023-05-04T02:23:39.264Z,100110.97
2023-05-04T02:24:44.827Z,100104.81
2023-05-04T02:25:49.022Z,100106.41
2023-05-04T02:26:54.759Z,100107.78
2023-05-04T02:27:59.226Z,100113.09
2023-05-04T02:29:04.061Z,100106.31
2023-05-04T02:30:09.936Z,100104.72
2023-05-04T02:31:14.293Z,100110.88
2023-05-04T02:32:19.145Z,100106.75
2023-05-04T02:33:23.568Z,100103.50
2023-05-04T02:34:28.065Z,100099.72
2023-05-04T02:35:32.169Z,100104.94
2023-05-04T02:36:36.111Z,100106.75
2023-05-04T02:37:40.492Z,100103.34
2023-05-04T02:38:44.387Z,100099.13
2023-05-04T02:39:48.816Z,100100.06
2023-05-04T02:40:53.063Z,100101.22
2023-05-04T02:41:56.815Z,100103.91
2023-05-04T02:43:01.809Z,100100.41
2023-05-04T02:44:05.848Z,100103.16
2023-05-04T02:45:11.233Z,100093.91
2023-05-04T02:46:15.519Z,100103.78
2023-05-04T02:47:20.697Z,100094.94
2023-05-04T02:48:25.818Z,100099.38
2023-05-04T02:49:29.812Z,100095.19
2023-05-04T02:50:34.663Z,100096.22
2023-05-04T02:51:38.718Z,100092.03
2023-05-04T02:52:44.457Z,100092.09
2023-05-04T02:53:49.093Z,100092.25
2023-05-04T02:54:53.792Z,100093.47
2023-05-04T02:55:58.255Z,100092.53
2023-05-04T02:57:03.326Z,100087.31
2023-05-04T02:58:07.793Z,100091.72
2023-05-04T02:59:11.957Z,100089.03
2023-05-04T03:00:17.802Z,100089.78
2023-05-04T03:01:21.859Z,100088.06
2023-05-04T03:02:26.127Z,100090.81
2023-05-04T03:03:30.001Z,100096.03
2023-05-04T03:04:34.475Z,100095.28
2023-05-04T03:05:39.036Z,100097.97
2023-05-04T03:06:44.002Z,100096.28
2023-05-04T03:07:48.001Z,100092.00
2023-05-04T03:08:52.038Z,100100.81
2023-05-04T03:09:56.004Z,100092.16
2023-05-04T03:11:00.062Z,100097.56
2023-05-04T03:12:04.764Z,100094.03
2023-05-04T03:13:09.784Z,100102.22
2023-05-04T03:14:13.734Z,100100.44
2023-05-04T03:15:20.191Z,100098.78
2023-05-04T03:16:24.728Z,100101.44
2023-05-04T03:17:28.810Z,100105.22
2023-05-04T03:19:54.679Z,100099.97
2023-05-04T03:20:59.268Z,100105.44
2023-05-04T03:22:03.143Z,100102.88
2023-05-04T03:23:07.109Z,100103.75
2023-05-04T03:24:11.840Z,100105.44
2023-05-04T03:25:15.943Z,100105.44
2023-05-04T03:26:20.339Z,100111.06
2023-05-04T03:27:25.695Z,100111.41
2023-05-04T03:28:30.087Z,100113.09
2023-05-04T03:29:34.582Z,100111.56
2023-05-04T03:30:39.476Z,100107.13
2023-05-04T03:31:43.982Z,100111.56
2023-05-04T03:32:49.932Z,100115.38
2023-05-04T03:33:54.637Z,100117.28
2023-05-04T03:34:59.551Z,100118.03
2023-05-04T03:36:05.153Z,100117.97
2023-05-04T03:37:09.409Z,100120.59
2023-05-04T03:38:13.915Z,100115.47
2023-05-04T03:39:18.319Z,100118.75
2023-05-04T03:40:24.895Z,100106.34
2023-05-04T03:41:29.360Z,100123.22
2023-05-04T03:42:33.641Z,100115.31
2023-05-04T03:43:37.536Z,100117.28
2023-05-04T03:44:42.172Z,100119.84
2023-05-04T03:45:47.593Z,100109.94
2023-05-04T03:46:51.647Z,100114.13
2023-05-04T03:48:00.379Z,100111.41
2023-05-04T03:49:04.532Z,100106.09
2023-05-04T03:50:10.161Z,100107.78
2023-05-04T03:51:14.645Z,100111.72
2023-05-04T03:52:18.829Z,100107.97
2023-05-04T03:53:22.778Z,100104.56
2023-05-04T03:54:28.312Z,100108.75
2023-05-04T03:55:32.461Z,100114.84
2023-05-04T03:56:36.369Z,100114.75
2023-05-04T03:57:42.477Z,100111.16
2023-05-04T03:58:46.667Z,100110.31
2023-05-04T03:59:51.482Z,100111.06
2023-05-04T04:00:56.621Z,100111.00
2023-05-04T04:02:02.570Z,100110.06
2023-05-04T04:03:07.247Z,100111.06
2023-05-04T04:04:12.289Z,100110.41
2023-05-04T04:05:16.224Z,100115.53
2023-05-04T04:06:20.522Z,100114.59
2023-05-04T04:07:24.552Z,100117.09
2023-05-04T04:08:29.038Z,100119.66
2023-05-04T04:09:32.931Z,100112.78
2023-05-04T04:10:37.471Z,100120.28
2023-05-04T04:11:45.074Z,100124.81
2023-05-04T04:12:49.034Z,100117.56
2023-05-04T04:13:53.660Z,100121.06
2023-05-04T04:14:58.713Z,100119.28
2023-05-04T04:16:03.413Z,100119.13
2023-05-04T04:17:07.467Z,100119.66
2023-05-04T04:18:11.637Z,100117.78
2023-05-04T04:19:15.753Z,100122.94
2023-05-04T04:20:19.803Z,100117.53
2023-05-04T04:21:25.077Z,100106.06
2023-05-04T04:22:29.027Z,100110.44
2023-05-04T04:23:32.826Z,100118.53
2023-05-04T04:24:36.733Z,100107.00
2023-05-04T04:25:43.565Z,100115.88
2023-05-04T04:26:52.114Z,100108.72
2023-05-04T04:27:56.205Z,100113.22
2023-05-04T04:29:00.501Z,100117.53
2023-05-04T04:30:06.125Z,100117.28
2023-05-04T04:31:11.329Z,100117.63
2023-05-04T04:32:16.199Z,100123.69
2023-05-04T04:33:20.250Z,100120.19
2023-05-04T04:34:24.088Z,100124.47
2023-05-04T04:35:28.408Z,100125.63
2023-05-04T04:36:33.359Z,100125.63
2023-05-04T04:37:38.278Z,100123.16
2023-05-04T04:38:42.594Z,100128.25
2023-05-04T04:39:49.194Z,100130.72
2023-05-04T04:40:53.806Z,100118.88
2023-05-04T04:41:57.581Z,100118.47
2023-05-04T04:43:03.251Z,100127.22
2023-05-04T04:44:12.178Z,100121.81
2023-05-04T04:45:17.115Z,100131.09
2023-05-04T04:46:21.209Z,100131.09
2023-05-04T04:47:25.840Z,100129.63
2023-05-04T04:48:29.872Z,100128.06
2023-05-04T04:49:34.420Z,100128.75
2023-05-04T04:50:40.390Z,100125.31
2023-05-04T04:51:45.445Z,100134.03
2023-05-04T04:52:50.160Z,100140.00
2023-05-04T04:53:54.618Z,100139.50
2023-05-04T04:55:00.467Z,100135.75
2023-05-04T04:56:06.415Z,100138.22
2023-05-04T04:57:11.954Z,100136.53
2023-05-04T04:58:19.525Z,100139.63
2023-05-04T04:59:25.059Z,100144.13
2023-05-04T05:00:31.531Z,100139.72
2023-05-04T05:01:36.444Z,100138.19
2023-05-04T05:02:41.173Z,100149.09
2023-05-04T05:03:48.024Z,100142.31
2023-05-04T05:04:53.239Z,100147.00
2023-05-04T05:05:58.299Z,100139.91
2023-05-04T05:07:02.389Z,100148.44
2023-05-04T05:08:06.885Z,100138.50
2023-05-04T05:09:12.680Z,100142.81
2023-05-04T05:10:16.993Z,100140.72
2023-05-04T05:11:21.165Z,100132.00
2023-05-04T05:12:26.242Z,100140.56
2023-05-04T05:13:32.187Z,100140.56
2023-05-04T05:14:38.218Z,100147.00
2023-05-04T05:15:42.830Z,100133.28
2023-05-04T05:16:47.793Z,100143.22
2023-05-04T05:17:52.004Z,100140.38
2023-05-04T05:18:56.026Z,100146.59
2023-05-04T05:20:00.596Z,100144.28
2023-05-04T05:21:06.154Z,100144.09
2023-05-04T05:22:10.783Z,100134.84
2023-05-04T05:23:15.289Z,100145.00
2023-05-04T05:24:19.786Z,100139.88
2023-05-04T05:25:25.051Z,100137.84
2023-05-04T05:26:29.851Z,100138.19
2023-05-04T05:27:39.729Z,100138.41
2023-05-04T05:28:43.709Z,100140.56
2023-05-04T05:29:48.562Z,100143.94
2023-05-04T05:30:53.643Z,100142.09
2023-05-04T05:31:58.091Z,100140.84
2023-05-04T05:33:04.888Z,100139.56
2023-05-04T05:34:09.639Z,100144.59
2023-05-04T05:35:25.640Z,100135.63
2023-05-04T05:36:29.889Z,100131.91
2023-05-04T05:37:33.937Z,100139.81
2023-05-04T05:38:38.292Z,100141.44
2023-05-04T05:39:43.008Z,100142.81
2023-05-04T05:40:49.118Z,100144.41
2023-05-04T05:41:58.103Z,100135.50
2023-05-04T05:43:03.383Z,100146.22
2023-05-04T05:44:08.106Z,100139.72
2023-05-04T05:45:13.197Z,100138.91
2023-05-04T05:46:18.553Z,100138.78
2023-05-04T05:47:22.626Z,100143.50
2023-05-04T05:48:26.564Z,100137.16
2023-05-04T05:49:30.920Z,100139.19
2023-05-04T05:50:35.235Z,100141.91
2023-05-04T05:51:38.989Z,100137.00
2023-05-04T05:52:43.093Z,100136.06
2023-05-04T05:53:47.147Z,100139.47
2023-05-04T05:54:51.052Z,100138.09
2023-05-04T05:55:54.836Z,100140.44
2023-05-04T05:57:00.238Z,100134.78
2023-05-04T05:58:05.832Z,100134.56
2023-05-04T05:59:09.853Z,100133.69
2023-05-04T06:00:15.389Z,100133.06
2023-05-04T06:01:20.297Z,100135.81
2023-05-04T06:02:24.895Z,100128.56
2023-05-04T06:03:29.271Z,100138.59
2023-05-04T06:04:33.225Z,100137.34
2023-05-04T06:05:37.239Z,100137.38
2023-05-04T06:06:42.643Z,100131.81
2023-05-04T06:07:47.884Z,100139.38
2023-05-04T06:08:51.890Z,100139.03
2023-05-04T06:09:56.815Z,100142.56
2023-05-04T06:11:01.176Z,100139.03
2023-05-04T06:12:07.685Z,100130.44
2023-05-04T06:13:13.256Z,100122.34
2023-05-04T06:14:18.602Z,100138.63
2023-05-04T06:15:30.047Z,100146.34
2023-05-04T06:16:38.888Z,100143.50
2023-05-04T06:17:45.333Z,100142.00
2023-05-04T06:18:50.769Z,100140.75
2023-05-04T06:19:55.154Z,100135.50
2023-05-04T06:21:01.718Z,100136.34
2023-05-04T06:22:07.163Z,100136.44
2023-05-04T06:23:11.432Z,100133.16
2023-05-04T06:24:17.492Z,100129.63
2023-05-04T06:25:22.800Z,100125.06
2023-05-04T06:26:33.537Z,100137.81
2023-05-04T06:27:38.020Z,100127.19
2023-05-04T06:28:43.129Z,100129.84
2023-05-04T06:29:48.143Z,100127.28
2023-05-04T06:30:54.424Z,100139.72
2023-05-04T06:32:00.304Z,100131.38
2023-05-04T06:33:05.591Z,100134.22
2023-05-04T06:34:10.798Z,100135.22
2023-05-04T06:35:16.058Z,100131.56
2023-05-04T06:37:47.681Z,100123.63
2023-05-04T06:38:52.183Z,100125.66
2023-05-04T06:39:57.642Z,100125.47
2023-05-04T06:41:03.969Z,100123.47
2023-05-04T06:42:08.709Z,100115.41
2023-05-04T06:43:13.396Z,100118.47
2023-05-04T06:44:18.603Z,100126.88
2023-05-04T06:45:23.665Z,100126.91
2023-05-04T06:46:28.107Z,100124.09
2023-05-04T06:47:35.983Z,100120.63
2023-05-04T06:48:40.754Z,100125.25
2023-05-04T06:49:45.629Z,100119.78
2023-05-04T06:50:50.245Z,100122.25
2023-05-04T06:51:55.613Z,100128.03
2023-05-04T06:53:12.379Z,100120.66
2023-05-04T06:54:16.656Z,100115.34
2023-05-04T06:55:22.029Z,100118.00
2023-05-04T06:56:27.199Z,100119.19
2023-05-04T06:57:33.072Z,100118.34
2023-05-04T06:58:38.637Z,100117.88
2023-05-04T06:59:43.798Z,100114.13
2023-05-04T07:00:53.699Z,100113.66
2023-05-04T07:02:01.094Z,100113.69
2023-05-04T07:03:06.972Z,100121.38
2023-05-04T07:04:26.628Z,100113.16
2023-05-04T07:21:45.489Z,100097.78
2023-05-04T07:22:49.212Z,100098.06
2023-05-04T07:23:53.043Z,100097.81
2023-05-04T07:24:58.595Z,100104.78
2023-05-04T07:26:04.595Z,100097.31
2023-05-04T07:27:08.564Z,100095.78
2023-05-04T07:28:13.042Z,100103.63
2023-05-04T07:29:17.019Z,100108.59
2023-05-04T07:30:22.306Z,100111.50
2023-05-04T07:31:30.647Z,100102.00
2023-05-04T07:32:35.024Z,100101.63
2023-05-04T07:33:41.466Z,100100.31
2023-05-04T07:34:47.205Z,100102.50
2023-05-04T07:35:51.167Z,100102.84
2023-05-04T07:36:55.295Z,100108.28
2023-05-04T07:37:59.532Z,100106.84
2023-05-04T07:39:03.777Z,100102.22
2023-05-04T07:40:09.870Z,100097.97
2023-05-04T07:41:13.825Z,100102.88
2023-05-04T07:42:18.400Z,100105.19
2023-05-04T07:43:24.756Z,100101.84
2023-05-04T07:44:28.625Z,100101.50
2023-05-04T07:45:32.344Z,100101.88
2023-05-04T07:46:38.631Z,100100.34
2023-05-04T07:47:45.179Z,100099.53
2023-05-04T07:48:49.632Z,100098.69
2023-05-04T07:49:53.817Z,100097.13
2023-05-04T07:50:57.918Z,100101.09
2023-05-04T07:52:01.718Z,100102.44
2023-05-04T07:53:05.873Z,100101.00
2023-05-04T07:54:10.494Z,100095.53
2023-05-04T07:55:14.294Z,100109.00
2023-05-04T07:56:18.120Z,100101.75
2023-05-04T07:57:22.736Z,100104.91
2023-05-04T07:58:26.610Z,100101.56
2023-05-04T07:59:32.398Z,100098.88
2023-05-04T08:00:38.064Z,100102.44
2023-05-04T08:01:44.015Z,100098.06
2023-05-04T08:02:48.908Z,100103.75
2023-05-04T08:03:52.848Z,100103.75
2023-05-04T08:04:56.604Z,100106.69
2023-05-04T08:06:00.441Z,100106.88
2023-05-04T08:07:06.117Z,100104.78
2023-05-04T08:08:10.045Z,100099.31
2023-05-04T08:09:14.485Z,100112.56
2023-05-04T08:10:18.920Z,100105.59
2023-05-04T08:11:23.111Z,100104.59
2023-05-04T08:12:27.307Z,100102.88
2023-05-04T08:13:31.450Z,100107.09
2023-05-04T08:14:38.135Z,100112.56
2023-05-04T08:15:43.050Z,100108.06
2023-05-04T08:16:47.874Z,100122.47
2023-05-04T08:17:52.244Z,100114.44
2023-05-04T08:18:57.483Z,100112.00
2023-05-04T08:20:02.096Z,100110.44
2023-05-04T08:21:06.420Z,100107.69
2023-05-04T08:22:18.099Z,100107.59
2023-05-04T08:23:22.376Z,100112.00
2023-05-04T08:24:26.141Z,100110.03
2023-05-04T08:25:33.893Z,100100.53
2023-05-04T08:26:38.894Z,100109.84
2023-05-04T08:27:42.851Z,100106.78
2023-05-04T08:28:47.639Z,100107.84
2023-05-04T08:29:51.674Z,100104.19
2023-05-04T08:30:56.760Z,100095.81
2023-05-04T08:32:01.431Z,100101.38
2023-05-04T08:33:06.279Z,100101.16
2023-05-04T08:34:10.567Z,100113.19
2023-05-04T08:35:14.511Z,100110.84
2023-05-04T08:36:18.953Z,100101.41
2023-05-04T08:37:23.051Z,100112.00
2023-05-04T08:38:27.041Z,100112.25
2023-05-04T08:39:30.941Z,100110.66
2023-05-04T08:40:35.315Z,100119.19
2023-05-04T08:41:42.387Z,100122.25
2023-05-04T08:42:50.768Z,100109.91
2023-05-04T08:43:55.649Z,100121.34
2023-05-04T08:45:00.524Z,100113.50
2023-05-04T08:46:05.066Z,100115.13
2023-05-04T08:47:09.188Z,100113.28
2023-05-04T08:48:14.531Z,100113.97
2023-05-04T08:49:23.111Z,100120.22
2023-05-04T08:50:27.493Z,100118.91
2023-05-04T08:51:36.396Z,100128.78
2023-05-04T08:52:49.090Z,100133.72
2023-05-04T08:53:54.839Z,100131.97
2023-05-04T08:55:00.438Z,100125.72
2023-05-04T08:56:13.435Z,100121.72
2023-05-04T08:57:18.350Z,100121.00
2023-05-04T08:58:25.735Z,100127.84
2023-05-04T08:59:32.348Z,100121.78
2023-05-04T09:00:38.749Z,100117.97
2023-05-04T09:01:43.503Z,100111.00
2023-05-04T09:02:49.708Z,100119.53
2023-05-04T09:03:54.994Z,100123.09
2023-05-04T09:05:01.924Z,100110.63
2023-05-04T09:06:09.229Z,100114.44
2023-05-04T09:07:13.538Z,100116.41
2023-05-04T09:08:18.896Z,100112.41
2023-05-04T09:09:26.679Z,100111.69
2023-05-04T09:10:31.876Z,100107.13
2023-05-04T09:11:36.186Z,100105.00
2023-05-04T09:12:40.478Z,100114.47
2023-05-04T09:13:45.986Z,100111.41
2023-05-04T09:14:50.095Z,100109.41
2023-05-04T09:15:58.950Z,100103.31
2023-05-04T09:17:12.457Z,100100.06
2023-05-04T09:18:16.398Z,100110.31
2023-05-04T09:19:21.376Z,100100.84
2023-05-04T09:20:28.520Z,100103.66
2023-05-04T09:21:34.966Z,100097.28
2023-05-04T09:22:39.180Z,100101.44
2023-05-04T09:23:54.186Z,100101.28
2023-05-04T09:25:13.052Z,100098.16
2023-05-04T09:26:31.610Z,100106.34
2023-05-04T09:27:35.851Z,100105.25
2023-05-04T09:28:40.193Z,100097.47
2023-05-04T09:29:45.190Z,100107.13
2023-05-04T09:30:49.577Z,100105.44
2023-05-04T09:31:53.325Z,100105.31
2023-05-04T09:33:00.720Z,100112.09
2023-05-04T09:34:11.001Z,100106.44
2023-05-04T09:35:29.364Z,100102.63
2023-05-04T09:36:38.371Z,100110.97
2023-05-04T09:37:47.195Z,100106.28
2023-05-04T09:38:50.923Z,100101.06
2023-05-04T09:39:59.636Z,100100.63
2023-05-04T09:41:03.466Z,100108.16
2023-05-04T09:42:19.303Z,100104.19
2023-05-04T09:43:24.779Z,100111.69
2023-05-04T09:44:29.898Z,100105.59
2023-05-04T09:45:41.632Z,100112.50
2023-05-04T09:47:06.049Z,100108.94
2023-05-04T09:48:36.368Z,100111.91
2023-05-04T09:49:40.629Z,100102.16
2023-05-04T09:51:03.386Z,100103.78
2023-05-04T09:52:07.891Z,100103.94
2023-05-04T09:53:14.702Z,100111.56
2023-05-04T09:54:19.897Z,100106.41
2023-05-04T09:55:26.559Z,100108.78
2023-05-04T09:56:30.296Z,100099.72
2023-05-04T09:57:36.432Z,100102.94
2023-05-04T09:58:43.382Z,100100.66
2023-05-04T09:59:47.932Z,100098.16
2023-05-04T10:00:57.477Z,100096.03
2023-05-04T10:02:14.493Z,100092.38
2023-05-04T10:03:28.318Z,100088.56
2023-05-04T10:04:34.551Z,100087.41
2023-05-04T10:05:40.194Z,100083.63
2023-05-04T10:06:45.316Z,100085.59
2023-05-04T10:07:50.243Z,100086.47
2023-05-04T10:08:54.036Z,100083.66
2023-05-04T10:10:01.668Z,100082.41
2023-05-04T10:11:06.200Z,100080.69
2023-05-04T10:12:10.450Z,100089.75
2023-05-04T10:13:17.536Z,100079.28
2023-05-04T10:14:22.329Z,100085.97
2023-05-04T10:15:27.063Z,100073.78
2023-05-04T10:16:55.467Z,100081.38
2023-05-04T10:18:48.396Z,100083.63
2023-05-04T10:20:49.511Z,100073.91
2023-05-04T10:23:08.776Z,100069.94
2023-05-04T10:24:54.212Z,100069.47
2023-05-04T10:26:19.126Z,100070.31
2023-05-04T10:27:57.443Z,100070.94
2023-05-04T10:29:23.910Z,100062.03
2023-05-04T10:30:29.013Z,100069.25
2023-05-04T10:31:44.230Z,100060.75
2023-05-04T10:32:59.049Z,100062.31
2023-05-04T10:34:03.217Z,100070.38
2023-05-04T10:35:11.574Z,100063.63
2023-05-04T10:36:15.790Z,100063.03
2023-05-04T10:37:22.229Z,100063.88
2023-05-04T10:38:40.877Z,100060.84
2023-05-04T10:39:57.015Z,100068.53
2023-05-04T10:41:01.019Z,100061.19
2023-05-04T10:42:10.647Z,100057.28
2023-05-04T10:43:25.599Z,100054.94
2023-05-04T10:44:32.629Z,100049.81
2023-05-04T10:45:41.944Z,100069.78
2023-05-04T10:47:05.783Z,100052.31
2023-05-04T10:48:11.079Z,100060.69
2023-05-04T10:49:18.211Z,100053.47
2023-05-04T10:50:22.473Z,100051.06
2023-05-04T10:51:35.683Z,100048.56
2023-05-04T10:52:54.387Z,100058.84
2023-05-04T10:54:01.452Z,100055.88
2023-05-04T10:55:09.163Z,100049.56
2023-05-04T10:56:26.507Z,100061.41
2023-05-04T10:57:31.612Z,100044.97
2023-05-04T10:58:35.634Z,100051.06
2023-05-04T10:59:43.076Z,100047.22
2023-05-04T11:00:51.857Z,100046.16
2023-05-04T11:01:55.750Z,100042.38
2023-05-04T11:03:04.528Z,100049.53
2023-05-04T11:04:22.931Z,100040.63
2023-05-04T11:05:27.548Z,100038.34
2023-05-04T11:06:31.384Z,100043.22
2023-05-04T11:07:40.381Z,100048.88
2023-05-04T11:08:49.729Z,100039.13
2023-05-04T11:09:54.096Z,100043.50
2023-05-04T11:11:09.966Z,100043.00
2023-05-04T11:12:19.575Z,100037.47
2023-05-04T11:13:25.356Z,100037.75
2023-05-04T11:14:29.684Z,100037.59
2023-05-04T11:15:44.550Z,100041.34
2023-05-04T11:16:49.288Z,100033.50
2023-05-04T11:17:54.673Z,100038.47
2023-05-04T11:19:12.948Z,100030.75
2023-05-04T11:20:27.928Z,100033.69
2023-05-04T11:21:32.104Z,100038.81
2023-05-04T11:22:47.016Z,100033.28
2023-05-04T11:24:01.804Z,100028.63
2023-05-04T11:25:06.860Z,100022.56
2023-05-04T11:26:12.625Z,100031.00
2023-05-04T11:27:24.800Z,100026.47
2023-05-04T11:28:42.089Z,100028.59
2023-05-04T11:30:03.896Z,100022.88
2023-05-04T11:31:16.319Z,100024.59
2023-05-04T11:32:20.536Z,100021.06
2023-05-04T11:33:28.315Z,100029.47
2023-05-04T11:34:32.353Z,100028.63
2023-05-04T11:35:36.719Z,100014.44
2023-05-04T11:36:44.895Z,100016.94
2023-05-04T11:37:54.120Z,100016.19
2023-05-04T11:38:58.633Z,100019.88
2023-05-04T11:40:03.028Z,100012.66
2023-05-04T11:41:09.602Z,100011.56
2023-05-04T11:42:16.554Z,100011.31
2023-05-04T11:43:24.982Z,100002.97
2023-05-04T11:44:30.296Z,100004.44
2023-05-04T11:45:38.002Z,100000.25
2023-05-04T11:46:43.782Z,100008.63
2023-05-04T11:47:49.726Z,100008.75
2023-05-04T11:48:54.514Z,100001.69
2023-05-04T11:49:58.560Z,100000.81
2023-05-04T11:51:07.528Z,99993.63
2023-05-04T11:52:12.544Z,100009.59
2023-05-04T11:53:25.569Z,100002.53
2023-05-04T11:54:29.206Z,100000.88
2023-05-04T11:55:33.272Z,99996.13
2023-05-04T11:56:44.695Z,99998.41
2023-05-04T11:58:04.932Z,99993.38
2023-05-04T11:59:12.628Z,99993.94
2023-05-04T12:00:18.145Z,100002.72
2023-05-04T12:01:21.855Z,99999.19
2023-05-04T12:02:27.275Z,99995.38
2023-05-04T12:04:41.586Z,99989.59
2023-05-04T12:05:52.972Z,99987.63
2023-05-04T12:06:56.938Z,99993.72
2023-05-04T12:08:03.589Z,99994.59
2023-05-04T12:09:07.824Z,99995.91
2023-05-04T12:10:12.304Z,99996.75
2023-05-04T12:11:25.678Z,99986.84
2023-05-04T12:12:36.576Z,99993.75
2023-05-04T12:13:42.601Z,99999.13
2023-05-04T12:14:58.119Z,99988.78
2023-05-04T12:16:21.374Z,99995.88
2023-05-04T12:17:25.475Z,99992.03
2023-05-04T12:18:30.245Z,99996.00
2023-05-04T12:19:51.934Z,99988.19
2023-05-04T12:20:56.515Z,99988.47
2023-05-04T12:22:03.353Z,99981.53
2023-05-04T12:23:09.765Z,99979.97
2023-05-04T12:24:15.066Z,99988.72
2023-05-04T12:25:21.087Z,99991.41
2023-05-04T12:26:29.948Z,99985.09
2023-05-04T12:27:34.140Z,99979.97
2023-05-04T12:28:40.196Z,99981.13
2023-05-04T12:29:43.892Z,99984.41
2023-05-04T12:30:50.102Z,99977.06
2023-05-04T12:31:54.038Z,99972.25
2023-05-04T12:32:57.937Z,99974.81
2023-05-04T12:34:03.462Z,99974.41
2023-05-04T12:35:09.319Z,99973.84
2023-05-04T12:36:14.294Z,99977.38
2023-05-04T12:37:18.230Z,99974.53
2023-05-04T12:38:22.635Z,99980.63
2023-05-04T12:39:33.534Z,99977.09
2023-05-04T12:40:40.789Z,99975.78
2023-05-04T12:41:45.810Z,99975.06
2023-05-04T12:42:49.723Z,99967.91
2023-05-04T12:43:54.375Z,99968.22
2023-05-04T12:44:59.032Z,99968.16
2023-05-04T12:46:03.510Z,99972.94
2023-05-04T12:47:07.853Z,99974.41
2023-05-04T12:48:13.447Z,99964.88
2023-05-04T12:49:17.779Z,99967.44
2023-05-04T12:50:21.489Z,99964.22
2023-05-04T12:51:25.705Z,99960.81
2023-05-04T12:52:29.845Z,99969.34
2023-05-04T12:53:33.911Z,99971.88
2023-05-04T12:54:37.730Z,99962.13
2023-05-04T12:55:41.881Z,99963.13
2023-05-04T12:56:46.326Z,99953.22
2023-05-04T12:57:50.602Z,99958.47
2023-05-04T12:58:54.590Z,99970.19
2023-05-04T12:59:58.397Z,99961.97
2023-05-04T13:01:03.876Z,99965.34
2023-05-04T13:02:08.696Z,99968.28
2023-05-04T13:03:13.664Z,99960.22